sensor_id;sensor_type;location;lat;lon;timestamp;temperature;humidity
69895;DHT22;57172;52.034;5.090;2023-02-23T00:01:53;8.80;84.00
69895;DHT22;57172;52.034;5.090;2023-02-23T00:04:20;8.90;83.90
69895;DHT22;57172;52.034;5.090;2023-02-23T00:06:47;8.90;83.80
69895;DHT22;57172;52.034;5.090;2023-02-23T00:09:14;8.90;83.90
69895;DHT22;57172;52.034;5.090;2023-02-23T00:11:53;8.90;83.70
69895;DHT22;57172;52.034;5.090;2023-02-23T00:14:24;8.90;83.80
69895;DHT22;57172;52.034;5.090;2023-02-23T00:16:53;8.90;83.90
69895;DHT22;57172;52.034;5.090;2023-02-23T00:19:20;8.90;83.80
69895;DHT22;57172;52.034;5.090;2023-02-23T00:21:51;8.90;83.80
69895;DHT22;57172;52.034;5.090;2023-02-23T00:24:18;8.90;83.80
69895;DHT22;57172;52.034;5.090;2023-02-23T00:26:47;8.90;83.80
69895;DHT22;57172;52.034;5.090;2023-02-23T00:29:19;8.90;83.80
69895;DHT22;57172;52.034;5.090;2023-02-23T00:31:48;8.90;83.80
69895;DHT22;57172;52.034;5.090;2023-02-23T00:34:17;8.90;83.70
69895;DHT22;57172;52.034;5.090;2023-02-23T00:36:51;8.90;83.80
69895;DHT22;57172;52.034;5.090;2023-02-23T00:39:20;8.90;83.80
69895;DHT22;57172;52.034;5.090;2023-02-23T00:41:49;8.90;83.70
69895;DHT22;57172;52.034;5.090;2023-02-23T00:44:18;8.80;83.70
69895;DHT22;57172;52.034;5.090;2023-02-23T00:46:46;8.80;83.90
69895;DHT22;57172;52.034;5.090;2023-02-23T00:49:18;8.80;84.00
69895;DHT22;57172;52.034;5.090;2023-02-23T00:51:45;8.80;84.10
69895;DHT22;57172;52.034;5.090;2023-02-23T00:54:13;8.80;84.10
69895;DHT22;57172;52.034;5.090;2023-02-23T00:56:40;8.80;83.90
69895;DHT22;57172;52.034;5.090;2023-02-23T00:59:07;8.90;83.90
69895;DHT22;57172;52.034;5.090;2023-02-23T01:01:34;8.90;83.90
69895;DHT22;57172;52.034;5.090;2023-02-23T01:04:03;8.90;83.90
69895;DHT22;57172;52.034;5.090;2023-02-23T01:06:30;9.00;83.80
69895;DHT22;57172;52.034;5.090;2023-02-23T01:08:57;9.00;83.60
69895;DHT22;57172;52.034;5.090;2023-02-23T01:11:27;9.00;83.70
69895;DHT22;57172;52.034;5.090;2023-02-23T01:13:57;9.00;83.70
69895;DHT22;57172;52.034;5.090;2023-02-23T01:16:30;9.00;83.80
69895;DHT22;57172;52.034;5.090;2023-02-23T01:19:00;9.00;83.80
69895;DHT22;57172;52.034;5.090;2023-02-23T01:21:35;8.90;83.80
69895;DHT22;57172;52.034;5.090;2023-02-23T01:24:03;8.90;83.80
69895;DHT22;57172;52.034;5.090;2023-02-23T01:26:35;8.90;83.90
69895;DHT22;57172;52.034;5.090;2023-02-23T01:29:12;8.90;83.90
69895;DHT22;57172;52.034;5.090;2023-02-23T01:31:43;8.90;83.90
69895;DHT22;57172;52.034;5.090;2023-02-23T01:34:12;8.90;83.90
69895;DHT22;57172;52.034;5.090;2023-02-23T01:36:41;8.90;84.00
69895;DHT22;57172;52.034;5.090;2023-02-23T01:39:11;8.90;84.10
69895;DHT22;57172;52.034;5.090;2023-02-23T01:41:40;8.90;84.00
69895;DHT22;57172;52.034;5.090;2023-02-23T01:46:44;8.90;84.10
69895;DHT22;57172;52.034;5.090;2023-02-23T01:49:27;8.90;84.10
69895;DHT22;57172;52.034;5.090;2023-02-23T01:52:08;8.90;84.10
69895;DHT22;57172;52.034;5.090;2023-02-23T01:54:40;8.90;84.10
69895;DHT22;57172;52.034;5.090;2023-02-23T01:57:11;8.80;84.10
69895;DHT22;57172;52.034;5.090;2023-02-23T01:59:45;8.80;84.20
69895;DHT22;57172;52.034;5.090;2023-02-23T02:02:13;8.70;84.30
69895;DHT22;57172;52.034;5.090;2023-02-23T02:04:41;8.70;84.60
69895;DHT22;57172;52.034;5.090;2023-02-23T02:07:23;8.70;84.60
69895;DHT22;57172;52.034;5.090;2023-02-23T02:09:54;8.80;84.60
69895;DHT22;57172;52.034;5.090;2023-02-23T02:12:52;8.80;84.50
69895;DHT22;57172;52.034;5.090;2023-02-23T02:15:22;8.80;84.40
69895;DHT22;57172;52.034;5.090;2023-02-23T02:18:16;8.80;84.50
69895;DHT22;57172;52.034;5.090;2023-02-23T02:24:31;8.80;84.30
69895;DHT22;57172;52.034;5.090;2023-02-23T02:38:34;8.80;84.60
69895;DHT22;57172;52.034;5.090;2023-02-23T02:41:24;8.80;84.70
69895;DHT22;57172;52.034;5.090;2023-02-23T02:44:17;8.80;84.60
69895;DHT22;57172;52.034;5.090;2023-02-23T02:46:48;8.80;84.50
69895;DHT22;57172;52.034;5.090;2023-02-23T02:52:40;8.80;84.70
69895;DHT22;57172;52.034;5.090;2023-02-23T02:55:14;8.70;84.70
69895;DHT22;57172;52.034;5.090;2023-02-23T02:57:43;8.70;84.70
69895;DHT22;57172;52.034;5.090;2023-02-23T03:00:17;8.70;84.70
69895;DHT22;57172;52.034;5.090;2023-02-23T03:03:03;8.70;84.80
69895;DHT22;57172;52.034;5.090;2023-02-23T03:05:51;8.60;84.90
69895;DHT22;57172;52.034;5.090;2023-02-23T03:11:39;8.60;85.00
69895;DHT22;57172;52.034;5.090;2023-02-23T03:14:44;8.70;85.00
69895;DHT22;57172;52.034;5.090;2023-02-23T03:17:46;8.60;85.00
69895;DHT22;57172;52.034;5.090;2023-02-23T03:23:21;8.60;84.90
69895;DHT22;57172;52.034;5.090;2023-02-23T03:32:16;8.60;85.00
69895;DHT22;57172;52.034;5.090;2023-02-23T03:35:15;8.50;85.20
69895;DHT22;57172;52.034;5.090;2023-02-23T03:41:05;8.50;85.60
69895;DHT22;57172;52.034;5.090;2023-02-23T03:43:55;8.50;85.60
69895;DHT22;57172;52.034;5.090;2023-02-23T03:46:45;8.50;85.60
69895;DHT22;57172;52.034;5.090;2023-02-23T03:49:39;8.50;85.50
69895;DHT22;57172;52.034;5.090;2023-02-23T03:52:31;8.50;85.50
69895;DHT22;57172;52.034;5.090;2023-02-23T03:55:22;8.60;85.60
69895;DHT22;57172;52.034;5.090;2023-02-23T03:58:13;8.60;85.40
69895;DHT22;57172;52.034;5.090;2023-02-23T04:01:03;8.60;85.40
69895;DHT22;57172;52.034;5.090;2023-02-23T04:03:50;8.50;85.50
69895;DHT22;57172;52.034;5.090;2023-02-23T04:06:40;8.50;85.50
69895;DHT22;57172;52.034;5.090;2023-02-23T04:09:27;8.50;85.60
69895;DHT22;57172;52.034;5.090;2023-02-23T04:12:31;8.60;85.40
69895;DHT22;57172;52.034;5.090;2023-02-23T04:15:26;8.50;85.40
69895;DHT22;57172;52.034;5.090;2023-02-23T04:17:53;8.40;85.60
69895;DHT22;57172;52.034;5.090;2023-02-23T04:20:21;8.40;85.70
69895;DHT22;57172;52.034;5.090;2023-02-23T04:22:48;8.40;85.80
69895;DHT22;57172;52.034;5.090;2023-02-23T04:25:15;8.40;85.80
69895;DHT22;57172;52.034;5.090;2023-02-23T04:27:43;8.40;85.80
69895;DHT22;57172;52.034;5.090;2023-02-23T04:30:10;8.40;86.00
69895;DHT22;57172;52.034;5.090;2023-02-23T04:32:37;8.40;86.00
69895;DHT22;57172;52.034;5.090;2023-02-23T04:35:08;8.40;85.90
69895;DHT22;57172;52.034;5.090;2023-02-23T04:37:35;8.40;85.90
69895;DHT22;57172;52.034;5.090;2023-02-23T04:40:02;8.50;85.90
69895;DHT22;57172;52.034;5.090;2023-02-23T04:42:29;8.40;85.90
69895;DHT22;57172;52.034;5.090;2023-02-23T04:44:56;8.50;86.00
69895;DHT22;57172;52.034;5.090;2023-02-23T04:47:23;8.50;85.90
69895;DHT22;57172;52.034;5.090;2023-02-23T04:49:50;8.50;86.00
69895;DHT22;57172;52.034;5.090;2023-02-23T04:52:17;8.50;85.90
69895;DHT22;57172;52.034;5.090;2023-02-23T04:54:44;8.50;85.90
69895;DHT22;57172;52.034;5.090;2023-02-23T04:57:11;8.50;85.70
69895;DHT22;57172;52.034;5.090;2023-02-23T04:59:37;8.50;85.80
69895;DHT22;57172;52.034;5.090;2023-02-23T05:02:04;8.40;85.90
69895;DHT22;57172;52.034;5.090;2023-02-23T05:04:32;8.50;85.70
69895;DHT22;57172;52.034;5.090;2023-02-23T05:07:03;8.50;85.60
69895;DHT22;57172;52.034;5.090;2023-02-23T05:09:30;8.50;85.60
69895;DHT22;57172;52.034;5.090;2023-02-23T05:11:57;8.50;85.50
69895;DHT22;57172;52.034;5.090;2023-02-23T05:14:24;8.60;85.50
69895;DHT22;57172;52.034;5.090;2023-02-23T05:16:51;8.60;85.50
69895;DHT22;57172;52.034;5.090;2023-02-23T05:19:18;8.60;85.40
69895;DHT22;57172;52.034;5.090;2023-02-23T05:21:45;8.70;85.30
69895;DHT22;57172;52.034;5.090;2023-02-23T05:24:12;8.70;85.10
69895;DHT22;57172;52.034;5.090;2023-02-23T05:26:38;8.70;85.00
69895;DHT22;57172;52.034;5.090;2023-02-23T05:29:05;8.70;85.00
69895;DHT22;57172;52.034;5.090;2023-02-23T05:31:32;8.70;85.00
69895;DHT22;57172;52.034;5.090;2023-02-23T05:33:59;8.70;85.00
69895;DHT22;57172;52.034;5.090;2023-02-23T05:36:27;8.70;85.00
69895;DHT22;57172;52.034;5.090;2023-02-23T05:38:53;8.70;85.00
69895;DHT22;57172;52.034;5.090;2023-02-23T05:41:22;8.70;84.90
69895;DHT22;57172;52.034;5.090;2023-02-23T05:43:50;8.70;84.90
69895;DHT22;57172;52.034;5.090;2023-02-23T05:46:22;8.70;84.80
69895;DHT22;57172;52.034;5.090;2023-02-23T05:48:56;8.70;84.80
69895;DHT22;57172;52.034;5.090;2023-02-23T05:51:25;8.70;84.80
69895;DHT22;57172;52.034;5.090;2023-02-23T05:53:52;8.70;84.80
69895;DHT22;57172;52.034;5.090;2023-02-23T05:56:19;8.70;84.90
69895;DHT22;57172;52.034;5.090;2023-02-23T05:58:48;8.70;85.00
69895;DHT22;57172;52.034;5.090;2023-02-23T06:01:15;8.70;85.00
69895;DHT22;57172;52.034;5.090;2023-02-23T06:03:44;8.70;85.00
69895;DHT22;57172;52.034;5.090;2023-02-23T06:06:11;8.70;85.10
69895;DHT22;57172;52.034;5.090;2023-02-23T06:08:39;8.70;85.20
69895;DHT22;57172;52.034;5.090;2023-02-23T06:11:06;8.70;85.10
69895;DHT22;57172;52.034;5.090;2023-02-23T06:13:33;8.70;85.20
69895;DHT22;57172;52.034;5.090;2023-02-23T06:16:00;8.70;85.20
69895;DHT22;57172;52.034;5.090;2023-02-23T06:18:28;8.70;85.10
69895;DHT22;57172;52.034;5.090;2023-02-23T06:20:58;8.70;85.10
69895;DHT22;57172;52.034;5.090;2023-02-23T06:23:30;8.70;85.10
69895;DHT22;57172;52.034;5.090;2023-02-23T06:25:57;8.70;85.00
69895;DHT22;57172;52.034;5.090;2023-02-23T06:28:26;8.70;85.00
69895;DHT22;57172;52.034;5.090;2023-02-23T06:30:54;8.70;84.80
69895;DHT22;57172;52.034;5.090;2023-02-23T06:33:22;8.70;85.00
69895;DHT22;57172;52.034;5.090;2023-02-23T06:35:49;8.70;85.10
69895;DHT22;57172;52.034;5.090;2023-02-23T06:38:16;8.70;85.00
69895;DHT22;57172;52.034;5.090;2023-02-23T06:40:43;8.70;85.10
69895;DHT22;57172;52.034;5.090;2023-02-23T06:43:10;8.70;85.00
69895;DHT22;57172;52.034;5.090;2023-02-23T06:45:37;8.70;85.00
69895;DHT22;57172;52.034;5.090;2023-02-23T06:48:05;8.70;84.80
69895;DHT22;57172;52.034;5.090;2023-02-23T06:50:32;8.60;84.90
69895;DHT22;57172;52.034;5.090;2023-02-23T06:52:59;8.60;85.00
69895;DHT22;57172;52.034;5.090;2023-02-23T06:55:25;8.60;85.10
69895;DHT22;57172;52.034;5.090;2023-02-23T06:57:52;8.60;85.00
69895;DHT22;57172;52.034;5.090;2023-02-23T07:00:20;8.70;84.80
69895;DHT22;57172;52.034;5.090;2023-02-23T07:02:47;8.70;84.80
69895;DHT22;57172;52.034;5.090;2023-02-23T07:05:14;8.70;84.90
69895;DHT22;57172;52.034;5.090;2023-02-23T07:07:41;8.60;85.00
69895;DHT22;57172;52.034;5.090;2023-02-23T07:10:08;8.70;85.00
69895;DHT22;57172;52.034;5.090;2023-02-23T07:12:35;8.70;85.10
69895;DHT22;57172;52.034;5.090;2023-02-23T07:15:02;8.70;85.10
69895;DHT22;57172;52.034;5.090;2023-02-23T07:17:29;8.70;85.00
69895;DHT22;57172;52.034;5.090;2023-02-23T07:19:56;8.80;85.00
69895;DHT22;57172;52.034;5.090;2023-02-23T07:22:23;8.80;84.90
69895;DHT22;57172;52.034;5.090;2023-02-23T07:24:50;8.80;84.90
69895;DHT22;57172;52.034;5.090;2023-02-23T07:27:17;8.70;85.00
69895;DHT22;57172;52.034;5.090;2023-02-23T07:29:44;8.80;85.30
69895;DHT22;57172;52.034;5.090;2023-02-23T07:32:11;8.80;85.30
69895;DHT22;57172;52.034;5.090;2023-02-23T07:34:38;8.80;85.40
69895;DHT22;57172;52.034;5.090;2023-02-23T07:37:05;8.80;85.50
69895;DHT22;57172;52.034;5.090;2023-02-23T07:39:32;8.80;85.40
69895;DHT22;57172;52.034;5.090;2023-02-23T07:41:59;8.80;85.50
69895;DHT22;57172;52.034;5.090;2023-02-23T07:44:28;8.90;85.40
69895;DHT22;57172;52.034;5.090;2023-02-23T07:46:55;8.90;85.40
69895;DHT22;57172;52.034;5.090;2023-02-23T07:49:23;8.90;85.50
69895;DHT22;57172;52.034;5.090;2023-02-23T07:51:51;9.00;85.60
69895;DHT22;57172;52.034;5.090;2023-02-23T07:54:18;9.00;85.50
69895;DHT22;57172;52.034;5.090;2023-02-23T07:56:45;9.00;85.50
69895;DHT22;57172;52.034;5.090;2023-02-23T07:59:12;9.10;85.40
69895;DHT22;57172;52.034;5.090;2023-02-23T08:01:39;9.10;85.50
69895;DHT22;57172;52.034;5.090;2023-02-23T08:04:06;9.10;85.50
69895;DHT22;57172;52.034;5.090;2023-02-23T08:06:33;9.20;85.40
69895;DHT22;57172;52.034;5.090;2023-02-23T08:09:02;9.20;85.40
69895;DHT22;57172;52.034;5.090;2023-02-23T08:11:30;9.30;85.40
69895;DHT22;57172;52.034;5.090;2023-02-23T08:13:57;9.20;85.30
69895;DHT22;57172;52.034;5.090;2023-02-23T08:16:30;9.30;85.50
69895;DHT22;57172;52.034;5.090;2023-02-23T08:18:59;9.30;85.30
69895;DHT22;57172;52.034;5.090;2023-02-23T08:21:27;9.30;85.20
69895;DHT22;57172;52.034;5.090;2023-02-23T08:23:56;9.30;85.00
69895;DHT22;57172;52.034;5.090;2023-02-23T08:26:23;9.30;85.20
69895;DHT22;57172;52.034;5.090;2023-02-23T08:28:52;9.30;85.20
69895;DHT22;57172;52.034;5.090;2023-02-23T08:31:20;9.30;85.30
69895;DHT22;57172;52.034;5.090;2023-02-23T08:33:51;9.40;85.20
69895;DHT22;57172;52.034;5.090;2023-02-23T08:36:18;9.30;85.10
69895;DHT22;57172;52.034;5.090;2023-02-23T08:38:46;9.40;85.10
69895;DHT22;57172;52.034;5.090;2023-02-23T08:41:14;9.40;85.10
69895;DHT22;57172;52.034;5.090;2023-02-23T08:43:41;9.40;85.10
69895;DHT22;57172;52.034;5.090;2023-02-23T08:46:09;9.40;85.20
69895;DHT22;57172;52.034;5.090;2023-02-23T08:48:36;9.30;85.30
69895;DHT22;57172;52.034;5.090;2023-02-23T08:51:05;9.40;85.70
69895;DHT22;57172;52.034;5.090;2023-02-23T08:53:32;9.50;85.40
69895;DHT22;57172;52.034;5.090;2023-02-23T08:56:02;9.50;85.50
69895;DHT22;57172;52.034;5.090;2023-02-23T08:58:30;9.60;85.40
69895;DHT22;57172;52.034;5.090;2023-02-23T09:00:58;9.60;85.20
69895;DHT22;57172;52.034;5.090;2023-02-23T09:03:26;9.70;85.00
69895;DHT22;57172;52.034;5.090;2023-02-23T09:05:56;9.80;84.80
69895;DHT22;57172;52.034;5.090;2023-02-23T09:08:24;9.80;84.70
69895;DHT22;57172;52.034;5.090;2023-02-23T09:10:50;9.80;84.60
69895;DHT22;57172;52.034;5.090;2023-02-23T09:13:17;9.90;84.40
69895;DHT22;57172;52.034;5.090;2023-02-23T09:15:44;9.90;84.50
69895;DHT22;57172;52.034;5.090;2023-02-23T09:18:12;9.90;84.50
69895;DHT22;57172;52.034;5.090;2023-02-23T09:20:42;9.90;84.50
69895;DHT22;57172;52.034;5.090;2023-02-23T09:23:10;10.00;84.70
69895;DHT22;57172;52.034;5.090;2023-02-23T09:25:43;10.10;84.70
69895;DHT22;57172;52.034;5.090;2023-02-23T09:28:11;10.20;84.60
69895;DHT22;57172;52.034;5.090;2023-02-23T09:30:39;10.20;84.60
69895;DHT22;57172;52.034;5.090;2023-02-23T09:33:07;10.20;84.40
69895;DHT22;57172;52.034;5.090;2023-02-23T09:35:35;10.30;83.90
69895;DHT22;57172;52.034;5.090;2023-02-23T09:38:03;10.20;83.60
69895;DHT22;57172;52.034;5.090;2023-02-23T09:40:43;10.20;83.40
69895;DHT22;57172;52.034;5.090;2023-02-23T09:43:11;10.20;83.20
69895;DHT22;57172;52.034;5.090;2023-02-23T09:45:42;10.20;82.80
69895;DHT22;57172;52.034;5.090;2023-02-23T09:50:52;10.20;83.00
69895;DHT22;57172;52.034;5.090;2023-02-23T09:53:41;10.30;83.30
69895;DHT22;57172;52.034;5.090;2023-02-23T09:56:26;10.30;83.30
69895;DHT22;57172;52.034;5.090;2023-02-23T09:58:54;10.30;83.20
69895;DHT22;57172;52.034;5.090;2023-02-23T10:06:56;10.40;82.40
69895;DHT22;57172;52.034;5.090;2023-02-23T10:12:29;10.40;82.40
69895;DHT22;57172;52.034;5.090;2023-02-23T10:15:25;10.40;82.70
69895;DHT22;57172;52.034;5.090;2023-02-23T10:23:17;10.50;82.00
69895;DHT22;57172;52.034;5.090;2023-02-23T10:25:49;10.50;82.00
69895;DHT22;57172;52.034;5.090;2023-02-23T10:28:19;10.50;82.00
69895;DHT22;57172;52.034;5.090;2023-02-23T10:30:49;10.50;82.00
69895;DHT22;57172;52.034;5.090;2023-02-23T10:33:33;10.60;82.30
69895;DHT22;57172;52.034;5.090;2023-02-23T10:36:37;10.70;82.60
69895;DHT22;57172;52.034;5.090;2023-02-23T10:39:06;10.70;82.40
69895;DHT22;57172;52.034;5.090;2023-02-23T10:41:35;10.70;82.20
69895;DHT22;57172;52.034;5.090;2023-02-23T10:44:03;10.80;82.20
69895;DHT22;57172;52.034;5.090;2023-02-23T10:46:43;10.90;82.10
69895;DHT22;57172;52.034;5.090;2023-02-23T10:49:18;10.90;81.60
69895;DHT22;57172;52.034;5.090;2023-02-23T10:51:48;11.10;81.90
69895;DHT22;57172;52.034;5.090;2023-02-23T10:57:23;11.20;80.30
69895;DHT22;57172;52.034;5.090;2023-02-23T11:00:27;11.30;80.20
69895;DHT22;57172;52.034;5.090;2023-02-23T11:02:57;11.30;79.40
69895;DHT22;57172;52.034;5.090;2023-02-23T11:08:37;11.30;78.90
69895;DHT22;57172;52.034;5.090;2023-02-23T11:13:43;11.40;78.20
69895;DHT22;57172;52.034;5.090;2023-02-23T11:16:16;11.50;77.90
69895;DHT22;57172;52.034;5.090;2023-02-23T11:19:03;11.50;77.50
69895;DHT22;57172;52.034;5.090;2023-02-23T11:21:32;11.50;77.60
69895;DHT22;57172;52.034;5.090;2023-02-23T11:24:16;11.50;77.20
69895;DHT22;57172;52.034;5.090;2023-02-23T11:26:47;11.50;77.60
69895;DHT22;57172;52.034;5.090;2023-02-23T11:31:53;11.50;77.10
69895;DHT22;57172;52.034;5.090;2023-02-23T11:34:41;11.40;76.70
69895;DHT22;57172;52.034;5.090;2023-02-23T11:39:51;11.30;76.10
69895;DHT22;57172;52.034;5.090;2023-02-23T11:42:24;11.20;75.90
69895;DHT22;57172;52.034;5.090;2023-02-23T11:47:39;11.10;76.20
69895;DHT22;57172;52.034;5.090;2023-02-23T11:50:23;11.00;76.30
69895;DHT22;57172;52.034;5.090;2023-02-23T11:53:38;11.00;76.40
69895;DHT22;57172;52.034;5.090;2023-02-23T11:55:50;10.90;76.30
69895;DHT22;57172;52.034;5.090;2023-02-23T11:58:25;10.80;76.70
69895;DHT22;57172;52.034;5.090;2023-02-23T12:01:03;10.80;76.90
69895;DHT22;57172;52.034;5.090;2023-02-23T12:03:43;10.70;76.90
69895;DHT22;57172;52.034;5.090;2023-02-23T12:06:10;10.70;77.20
69895;DHT22;57172;52.034;5.090;2023-02-23T12:08:49;10.70;77.40
69895;DHT22;57172;52.034;5.090;2023-02-23T12:11:23;10.70;77.40
69895;DHT22;57172;52.034;5.090;2023-02-23T12:17:07;10.70;77.20
69895;DHT22;57172;52.034;5.090;2023-02-23T12:19:53;10.70;77.60
69895;DHT22;57172;52.034;5.090;2023-02-23T12:22:28;10.80;77.90
69895;DHT22;57172;52.034;5.090;2023-02-23T12:25:03;10.90;77.80
69895;DHT22;57172;52.034;5.090;2023-02-23T12:27:47;10.90;77.20
69895;DHT22;57172;52.034;5.090;2023-02-23T12:30:22;11.00;77.20
69895;DHT22;57172;52.034;5.090;2023-02-23T12:32:57;11.00;77.10
69895;DHT22;57172;52.034;5.090;2023-02-23T12:35:46;11.00;76.70
69895;DHT22;57172;52.034;5.090;2023-02-23T12:38:38;10.90;76.20
69895;DHT22;57172;52.034;5.090;2023-02-23T12:41:10;10.90;75.90
69895;DHT22;57172;52.034;5.090;2023-02-23T12:46:30;10.90;76.00
69895;DHT22;57172;52.034;5.090;2023-02-23T12:49:10;10.90;75.70
69895;DHT22;57172;52.034;5.090;2023-02-23T12:51:49;10.90;76.20
69895;DHT22;57172;52.034;5.090;2023-02-23T12:54:17;10.90;75.80
69895;DHT22;57172;52.034;5.090;2023-02-23T12:57:12;10.90;75.70
69895;DHT22;57172;52.034;5.090;2023-02-23T12:59:49;10.90;75.10
69895;DHT22;57172;52.034;5.090;2023-02-23T13:10:20;11.20;76.80
69895;DHT22;57172;52.034;5.090;2023-02-23T13:15:34;11.60;75.80
69895;DHT22;57172;52.034;5.090;2023-02-23T13:20:53;11.70;74.30
69895;DHT22;57172;52.034;5.090;2023-02-23T13:23:36;11.70;73.80
69895;DHT22;57172;52.034;5.090;2023-02-23T13:31:51;11.70;73.60
69895;DHT22;57172;52.034;5.090;2023-02-23T13:34:27;11.70;73.60
69895;DHT22;57172;52.034;5.090;2023-02-23T13:36:57;11.70;72.80
69895;DHT22;57172;52.034;5.090;2023-02-23T13:50:50;11.40;72.20
69895;DHT22;57172;52.034;5.090;2023-02-23T13:56:15;11.20;72.30
69895;DHT22;57172;52.034;5.090;2023-02-23T13:58:52;11.10;72.40
69895;DHT22;57172;52.034;5.090;2023-02-23T14:01:21;11.10;72.70
69895;DHT22;57172;52.034;5.090;2023-02-23T14:03:58;11.00;72.90
69895;DHT22;57172;52.034;5.090;2023-02-23T14:06:28;11.00;73.00
69895;DHT22;57172;52.034;5.090;2023-02-23T14:08:59;11.00;73.10
69895;DHT22;57172;52.034;5.090;2023-02-23T14:11:42;11.00;73.50
69895;DHT22;57172;52.034;5.090;2023-02-23T14:15:26;11.00;73.70
69895;DHT22;57172;52.034;5.090;2023-02-23T14:19:42;11.20;74.10
69895;DHT22;57172;52.034;5.090;2023-02-23T14:22:16;11.20;73.80
69895;DHT22;57172;52.034;5.090;2023-02-23T14:28:00;11.10;73.70
69895;DHT22;57172;52.034;5.090;2023-02-23T14:30:29;11.10;73.70
69895;DHT22;57172;52.034;5.090;2023-02-23T14:47:21;11.20;73.60
69895;DHT22;57172;52.034;5.090;2023-02-23T14:49:52;11.10;73.80
69895;DHT22;57172;52.034;5.090;2023-02-23T14:52:21;11.10;73.70
69895;DHT22;57172;52.034;5.090;2023-02-23T14:54:50;11.10;74.00
69895;DHT22;57172;52.034;5.090;2023-02-23T14:57:23;11.10;74.20
69895;DHT22;57172;52.034;5.090;2023-02-23T15:00:02;11.10;74.70
69895;DHT22;57172;52.034;5.090;2023-02-23T15:02:32;11.20;74.80
69895;DHT22;57172;52.034;5.090;2023-02-23T15:05:15;11.30;74.80
69895;DHT22;57172;52.034;5.090;2023-02-23T15:07:42;11.40;74.60
69895;DHT22;57172;52.034;5.090;2023-02-23T15:10:27;11.50;74.30
69895;DHT22;57172;52.034;5.090;2023-02-23T15:12:54;11.50;74.30
69895;DHT22;57172;52.034;5.090;2023-02-23T15:15:24;11.60;73.80
69895;DHT22;57172;52.034;5.090;2023-02-23T15:17:54;11.60;73.00
69895;DHT22;57172;52.034;5.090;2023-02-23T15:20:25;11.50;72.90
69895;DHT22;57172;52.034;5.090;2023-02-23T15:23:00;11.50;72.70
69895;DHT22;57172;52.034;5.090;2023-02-23T15:25:37;11.40;72.60
69895;DHT22;57172;52.034;5.090;2023-02-23T15:28:25;11.30;72.60
69895;DHT22;57172;52.034;5.090;2023-02-23T15:30:55;11.30;72.30
69895;DHT22;57172;52.034;5.090;2023-02-23T15:33:22;11.20;72.10
69895;DHT22;57172;52.034;5.090;2023-02-23T15:38:46;10.90;72.50
69895;DHT22;57172;52.034;5.090;2023-02-23T15:41:33;10.70;73.00
69895;DHT22;57172;52.034;5.090;2023-02-23T15:46:29;10.40;73.70
69895;DHT22;57172;52.034;5.090;2023-02-23T15:48:59;10.30;73.90
69895;DHT22;57172;52.034;5.090;2023-02-23T15:51:35;10.10;74.00
69895;DHT22;57172;52.034;5.090;2023-02-23T15:54:21;10.00;74.10
69895;DHT22;57172;52.034;5.090;2023-02-23T15:56:55;9.90;74.40
69895;DHT22;57172;52.034;5.090;2023-02-23T15:59:33;9.80;74.60
69895;DHT22;57172;52.034;5.090;2023-02-23T16:02:02;9.70;74.70
69895;DHT22;57172;52.034;5.090;2023-02-23T16:04:31;9.60;74.70
69895;DHT22;57172;52.034;5.090;2023-02-23T16:07:34;9.50;74.80
69895;DHT22;57172;52.034;5.090;2023-02-23T16:10:22;9.50;74.70
69895;DHT22;57172;52.034;5.090;2023-02-23T16:12:51;9.40;74.80
69895;DHT22;57172;52.034;5.090;2023-02-23T16:15:23;9.30;75.00
69895;DHT22;57172;52.034;5.090;2023-02-23T16:18:03;9.30;75.20
69895;DHT22;57172;52.034;5.090;2023-02-23T16:20:40;9.30;75.30
69895;DHT22;57172;52.034;5.090;2023-02-23T16:23:41;9.30;75.40
69895;DHT22;57172;52.034;5.090;2023-02-23T16:26:27;9.30;75.50
69895;DHT22;57172;52.034;5.090;2023-02-23T16:28:59;9.40;75.30
69895;DHT22;57172;52.034;5.090;2023-02-23T16:31:53;9.40;75.40
69895;DHT22;57172;52.034;5.090;2023-02-23T16:34:40;9.40;75.20
69895;DHT22;57172;52.034;5.090;2023-02-23T16:37:18;9.30;75.10
69895;DHT22;57172;52.034;5.090;2023-02-23T16:39:48;9.30;75.10
69895;DHT22;57172;52.034;5.090;2023-02-23T16:42:32;9.20;75.20
69895;DHT22;57172;52.034;5.090;2023-02-23T16:45:00;9.10;75.50
69895;DHT22;57172;52.034;5.090;2023-02-23T16:47:34;9.00;75.70
69895;DHT22;57172;52.034;5.090;2023-02-23T16:50:11;9.00;75.80
69895;DHT22;57172;52.034;5.090;2023-02-23T16:52:48;9.00;75.80
69895;DHT22;57172;52.034;5.090;2023-02-23T16:55:19;8.90;75.80
69895;DHT22;57172;52.034;5.090;2023-02-23T16:57:56;8.80;75.90
69895;DHT22;57172;52.034;5.090;2023-02-23T17:00:27;8.80;75.90
69895;DHT22;57172;52.034;5.090;2023-02-23T17:02:55;8.80;76.00
69895;DHT22;57172;52.034;5.090;2023-02-23T17:05:23;8.80;75.90
69895;DHT22;57172;52.034;5.090;2023-02-23T17:07:51;8.70;75.70
69895;DHT22;57172;52.034;5.090;2023-02-23T17:10:24;8.60;75.70
69895;DHT22;57172;52.034;5.090;2023-02-23T17:12:57;8.60;75.80
69895;DHT22;57172;52.034;5.090;2023-02-23T17:15:26;8.50;76.10
69895;DHT22;57172;52.034;5.090;2023-02-23T17:17:55;8.50;76.40
69895;DHT22;57172;52.034;5.090;2023-02-23T17:20:24;8.50;76.60
69895;DHT22;57172;52.034;5.090;2023-02-23T17:22:53;8.40;76.40
69895;DHT22;57172;52.034;5.090;2023-02-23T17:25:22;8.40;76.40
69895;DHT22;57172;52.034;5.090;2023-02-23T17:27:50;8.40;76.20
69895;DHT22;57172;52.034;5.090;2023-02-23T17:30:17;8.30;75.80
69895;DHT22;57172;52.034;5.090;2023-02-23T17:32:44;8.30;75.90
69895;DHT22;57172;52.034;5.090;2023-02-23T17:35:11;8.20;75.60
69895;DHT22;57172;52.034;5.090;2023-02-23T17:37:38;8.20;75.60
69895;DHT22;57172;52.034;5.090;2023-02-23T17:40:07;8.20;75.50
69895;DHT22;57172;52.034;5.090;2023-02-23T17:42:35;8.20;75.20
69895;DHT22;57172;52.034;5.090;2023-02-23T17:45:03;8.10;75.20
69895;DHT22;57172;52.034;5.090;2023-02-23T17:47:32;8.10;75.30
69895;DHT22;57172;52.034;5.090;2023-02-23T17:49:59;8.10;75.50
69895;DHT22;57172;52.034;5.090;2023-02-23T17:52:27;8.10;75.40
69895;DHT22;57172;52.034;5.090;2023-02-23T17:54:54;8.10;75.50
69895;DHT22;57172;52.034;5.090;2023-02-23T17:57:22;8.10;75.40
69895;DHT22;57172;52.034;5.090;2023-02-23T17:59:50;8.20;75.20
69895;DHT22;57172;52.034;5.090;2023-02-23T18:02:19;8.20;75.20
69895;DHT22;57172;52.034;5.090;2023-02-23T18:04:47;8.20;74.90
69895;DHT22;57172;52.034;5.090;2023-02-23T18:07:16;8.20;74.60
69895;DHT22;57172;52.034;5.090;2023-02-23T18:09:43;8.20;74.30
69895;DHT22;57172;52.034;5.090;2023-02-23T18:12:10;8.10;74.30
69895;DHT22;57172;52.034;5.090;2023-02-23T18:14:39;8.10;74.20
69895;DHT22;57172;52.034;5.090;2023-02-23T18:17:07;8.10;74.20
69895;DHT22;57172;52.034;5.090;2023-02-23T18:19:34;8.10;74.00
69895;DHT22;57172;52.034;5.090;2023-02-23T18:22:01;8.10;74.10
69895;DHT22;57172;52.034;5.090;2023-02-23T18:24:28;8.10;74.10
69895;DHT22;57172;52.034;5.090;2023-02-23T18:26:57;8.10;74.00
69895;DHT22;57172;52.034;5.090;2023-02-23T18:29:30;8.10;74.10
69895;DHT22;57172;52.034;5.090;2023-02-23T18:31:59;8.00;73.80